sensor_id;sensor_type;location;lat;lon;timestamp;temperature;humidity
50570;DHT22;36525;49.398;7.614;2022-12-29T00:00:55;8.40;99.90
50570;DHT22;36525;49.398;7.614;2022-12-29T00:03:22;8.50;99.90
50570;DHT22;36525;49.398;7.614;2022-12-29T00:05:58;8.40;99.90
50570;DHT22;36525;49.398;7.614;2022-12-29T00:08:25;8.40;99.90
50570;DHT22;36525;49.398;7.614;2022-12-29T00:11:16;8.40;99.90
50570;DHT22;36525;49.398;7.614;2022-12-29T00:13:45;8.50;99.90
50570;DHT22;36525;49.398;7.614;2022-12-29T00:16:31;8.50;99.90
50570;DHT22;36525;49.398;7.614;2022-12-29T00:18:59;8.50;99.90
50570;DHT22;36525;49.398;7.614;2022-12-29T00:21:27;8.60;99.90
50570;DHT22;36525;49.398;7.614;2022-12-29T00:24:20;8.60;99.90
50570;DHT22;36525;49.398;7.614;2022-12-29T00:29:53;8.60;99.90
50570;DHT22;36525;49.398;7.614;2022-12-29T00:32:39;8.70;99.90
50570;DHT22;36525;49.398;7.614;2022-12-29T00:35:28;8.70;99.90
50570;DHT22;36525;49.398;7.614;2022-12-29T00:38:00;8.80;99.90
50570;DHT22;36525;49.398;7.614;2022-12-29T00:40:48;8.70;99.90
50570;DHT22;36525;49.398;7.614;2022-12-29T00:43:33;8.80;99.90
50570;DHT22;36525;49.398;7.614;2022-12-29T00:46:18;8.80;99.90
50570;DHT22;36525;49.398;7.614;2022-12-29T00:48:46;8.80;99.90
50570;DHT22;36525;49.398;7.614;2022-12-29T00:51:31;8.90;99.90
50570;DHT22;36525;49.398;7.614;2022-12-29T00:53:58;8.90;99.90
50570;DHT22;36525;49.398;7.614;2022-12-29T00:56:25;9.00;99.90
50570;DHT22;36525;49.398;7.614;2022-12-29T00:58:52;9.00;99.90
50570;DHT22;36525;49.398;7.614;2022-12-29T01:01:19;8.90;99.90
50570;DHT22;36525;49.398;7.614;2022-12-29T01:03:46;9.00;99.90
50570;DHT22;36525;49.398;7.614;2022-12-29T01:06:14;9.10;99.90
50570;DHT22;36525;49.398;7.614;2022-12-29T01:08:41;9.10;99.90
50570;DHT22;36525;49.398;7.614;2022-12-29T01:11:10;9.10;99.90
50570;DHT22;36525;49.398;7.614;2022-12-29T01:13:38;9.20;99.90
50570;DHT22;36525;49.398;7.614;2022-12-29T01:16:07;9.30;99.90
50570;DHT22;36525;49.398;7.614;2022-12-29T01:18:34;9.30;99.90
50570;DHT22;36525;49.398;7.614;2022-12-29T01:21:03;9.40;99.90
50570;DHT22;36525;49.398;7.614;2022-12-29T01:23:32;9.30;99.90
50570;DHT22;36525;49.398;7.614;2022-12-29T01:26:11;9.40;99.90
50570;DHT22;36525;49.398;7.614;2022-12-29T01:28:39;9.30;99.90
50570;DHT22;36525;49.398;7.614;2022-12-29T01:31:12;9.20;99.90
50570;DHT22;36525;49.398;7.614;2022-12-29T01:33:41;9.10;99.90
50570;DHT22;36525;49.398;7.614;2022-12-29T01:36:13;9.20;99.90
50570;DHT22;36525;49.398;7.614;2022-12-29T01:38:42;9.10;99.90
50570;DHT22;36525;49.398;7.614;2022-12-29T01:41:13;9.20;99.90
50570;DHT22;36525;49.398;7.614;2022-12-29T01:43:55;9.20;99.90
50570;DHT22;36525;49.398;7.614;2022-12-29T01:54:30;9.10;99.90
50570;DHT22;36525;49.398;7.614;2022-12-29T01:57:01;9.10;99.90
50570;DHT22;36525;49.398;7.614;2022-12-29T01:59:34;9.10;99.90
50570;DHT22;36525;49.398;7.614;2022-12-29T02:02:05;9.20;99.90
50570;DHT22;36525;49.398;7.614;2022-12-29T02:04:33;9.20;99.90
50570;DHT22;36525;49.398;7.614;2022-12-29T02:07:08;9.20;99.90
50570;DHT22;36525;49.398;7.614;2022-12-29T02:09:39;9.30;99.90
50570;DHT22;36525;49.398;7.614;2022-12-29T02:12:07;9.40;99.90
50570;DHT22;36525;49.398;7.614;2022-12-29T02:14:34;9.40;99.90
50570;DHT22;36525;49.398;7.614;2022-12-29T02:20:37;9.50;99.90
50570;DHT22;36525;49.398;7.614;2022-12-29T02:29:26;9.40;99.90
50570;DHT22;36525;49.398;7.614;2022-12-29T02:38:27;9.50;99.90
50570;DHT22;36525;49.398;7.614;2022-12-29T02:41:29;9.50;99.90
50570;DHT22;36525;49.398;7.614;2022-12-29T02:47:35;9.40;99.90
50570;DHT22;36525;49.398;7.614;2022-12-29T02:53:15;9.50;99.90
50570;DHT22;36525;49.398;7.614;2022-12-29T02:55:49;9.50;99.90
50570;DHT22;36525;49.398;7.614;2022-12-29T02:58:21;9.50;99.90
50570;DHT22;36525;49.398;7.614;2022-12-29T03:01:26;9.50;99.90
50570;DHT22;36525;49.398;7.614;2022-12-29T03:07:52;9.50;99.90
50570;DHT22;36525;49.398;7.614;2022-12-29T03:10:50;9.50;99.90
50570;DHT22;36525;49.398;7.614;2022-12-29T03:13:59;9.40;99.90
50570;DHT22;36525;49.398;7.614;2022-12-29T03:17:26;9.40;99.90
50570;DHT22;36525;49.398;7.614;2022-12-29T03:20:04;9.40;99.90
50570;DHT22;36525;49.398;7.614;2022-12-29T03:22:39;9.40;99.90
50570;DHT22;36525;49.398;7.614;2022-12-29T03:25:28;9.40;99.90
50570;DHT22;36525;49.398;7.614;2022-12-29T03:28:01;9.40;99.90
50570;DHT22;36525;49.398;7.614;2022-12-29T03:30:32;9.40;99.90
50570;DHT22;36525;49.398;7.614;2022-12-29T03:33:07;9.50;99.90
50570;DHT22;36525;49.398;7.614;2022-12-29T03:35:38;9.60;99.90
50570;DHT22;36525;49.398;7.614;2022-12-29T03:38:23;9.50;99.90
50570;DHT22;36525;49.398;7.614;2022-12-29T03:40:57;9.50;99.90
50570;DHT22;36525;49.398;7.614;2022-12-29T03:43:26;9.60;99.90
50570;DHT22;36525;49.398;7.614;2022-12-29T03:45:53;9.60;99.90
50570;DHT22;36525;49.398;7.614;2022-12-29T03:48:20;9.60;99.90
50570;DHT22;36525;49.398;7.614;2022-12-29T03:50:47;9.60;99.90
50570;DHT22;36525;49.398;7.614;2022-12-29T03:53:14;9.50;99.90
50570;DHT22;36525;49.398;7.614;2022-12-29T03:55:42;9.40;99.90
50570;DHT22;36525;49.398;7.614;2022-12-29T03:58:09;9.50;99.90
50570;DHT22;36525;49.398;7.614;2022-12-29T04:00:35;9.50;99.90
50570;DHT22;36525;49.398;7.614;2022-12-29T04:03:02;9.40;99.90
50570;DHT22;36525;49.398;7.614;2022-12-29T04:05:30;9.40;99.90
50570;DHT22;36525;49.398;7.614;2022-12-29T04:07:58;9.50;99.90
50570;DHT22;36525;49.398;7.614;2022-12-29T04:10:25;9.60;99.90
50570;DHT22;36525;49.398;7.614;2022-12-29T04:12:52;9.60;99.90
50570;DHT22;36525;49.398;7.614;2022-12-29T04:15:19;9.60;99.90
50570;DHT22;36525;49.398;7.614;2022-12-29T04:17:46;9.50;99.90
50570;DHT22;36525;49.398;7.614;2022-12-29T04:20:12;9.60;99.90
50570;DHT22;36525;49.398;7.614;2022-12-29T04:23:00;9.60;99.90
50570;DHT22;36525;49.398;7.614;2022-12-29T04:25:28;9.60;99.90
50570;DHT22;36525;49.398;7.614;2022-12-29T04:27:57;9.70;99.90
50570;DHT22;36525;49.398;7.614;2022-12-29T04:30:24;9.80;99.90
50570;DHT22;36525;49.398;7.614;2022-12-29T04:32:51;9.80;99.90
50570;DHT22;36525;49.398;7.614;2022-12-29T04:35:19;9.90;99.90
50570;DHT22;36525;49.398;7.614;2022-12-29T04:37:45;9.80;99.90
50570;DHT22;36525;49.398;7.614;2022-12-29T04:40:12;9.80;99.90
50570;DHT22;36525;49.398;7.614;2022-12-29T04:42:40;9.80;99.90
50570;DHT22;36525;49.398;7.614;2022-12-29T04:45:07;10.00;99.90
50570;DHT22;36525;49.398;7.614;2022-12-29T04:47:34;10.00;99.90
50570;DHT22;36525;49.398;7.614;2022-12-29T04:50:01;10.00;99.90
50570;DHT22;36525;49.398;7.614;2022-12-29T04:52:28;10.00;99.90
50570;DHT22;36525;49.398;7.614;2022-12-29T04:54:55;10.00;99.90
50570;DHT22;36525;49.398;7.614;2022-12-29T04:57:23;10.00;99.90
50570;DHT22;36525;49.398;7.614;2022-12-29T04:59:50;9.90;99.90
50570;DHT22;36525;49.398;7.614;2022-12-29T05:02:17;10.00;99.90
50570;DHT22;36525;49.398;7.614;2022-12-29T05:04:44;10.10;99.90
50570;DHT22;36525;49.398;7.614;2022-12-29T05:07:12;10.20;99.90
50570;DHT22;36525;49.398;7.614;2022-12-29T05:09:40;10.20;99.90
50570;DHT22;36525;49.398;7.614;2022-12-29T05:12:07;10.20;99.90
50570;DHT22;36525;49.398;7.614;2022-12-29T05:14:34;10.20;99.90
50570;DHT22;36525;49.398;7.614;2022-12-29T05:17:01;10.20;99.90
50570;DHT22;36525;49.398;7.614;2022-12-29T05:19:28;10.20;99.90
50570;DHT22;36525;49.398;7.614;2022-12-29T05:21:55;10.20;99.90
50570;DHT22;36525;49.398;7.614;2022-12-29T05:24:22;10.30;99.90
50570;DHT22;36525;49.398;7.614;2022-12-29T05:26:48;10.10;99.90
50570;DHT22;36525;49.398;7.614;2022-12-29T05:29:15;10.20;99.90
50570;DHT22;36525;49.398;7.614;2022-12-29T05:31:43;10.10;99.90
50570;DHT22;36525;49.398;7.614;2022-12-29T05:34:13;10.10;99.90
50570;DHT22;36525;49.398;7.614;2022-12-29T05:36:40;9.80;99.90
50570;DHT22;36525;49.398;7.614;2022-12-29T05:39:07;9.70;99.90
50570;DHT22;36525;49.398;7.614;2022-12-29T05:41:34;9.80;99.90
50570;DHT22;36525;49.398;7.614;2022-12-29T05:44:02;9.70;99.90
50570;DHT22;36525;49.398;7.614;2022-12-29T05:46:29;9.80;99.90
50570;DHT22;36525;49.398;7.614;2022-12-29T05:48:56;10.00;99.90
50570;DHT22;36525;49.398;7.614;2022-12-29T05:51:23;10.10;99.90
50570;DHT22;36525;49.398;7.614;2022-12-29T05:53:50;10.30;99.90
50570;DHT22;36525;49.398;7.614;2022-12-29T05:56:17;10.30;99.90
50570;DHT22;36525;49.398;7.614;2022-12-29T05:58:44;10.40;99.90
50570;DHT22;36525;49.398;7.614;2022-12-29T06:01:10;10.40;99.90
50570;DHT22;36525;49.398;7.614;2022-12-29T06:03:37;10.40;99.90
50570;DHT22;36525;49.398;7.614;2022-12-29T06:06:13;10.40;99.90
50570;DHT22;36525;49.398;7.614;2022-12-29T06:08:40;10.50;99.90
50570;DHT22;36525;49.398;7.614;2022-12-29T06:11:10;10.50;99.90
50570;DHT22;36525;49.398;7.614;2022-12-29T06:13:37;10.60;99.90
50570;DHT22;36525;49.398;7.614;2022-12-29T06:16:07;10.60;99.90
50570;DHT22;36525;49.398;7.614;2022-12-29T06:18:33;10.60;99.90
50570;DHT22;36525;49.398;7.614;2022-12-29T06:21:02;10.70;99.90
50570;DHT22;36525;49.398;7.614;2022-12-29T06:23:30;10.70;99.90
50570;DHT22;36525;49.398;7.614;2022-12-29T06:25:57;10.70;99.90
50570;DHT22;36525;49.398;7.614;2022-12-29T06:28:24;10.80;99.90
50570;DHT22;36525;49.398;7.614;2022-12-29T06:30:51;10.90;99.90
50570;DHT22;36525;49.398;7.614;2022-12-29T06:33:21;10.90;99.90
50570;DHT22;36525;49.398;7.614;2022-12-29T06:35:48;10.80;99.90
50570;DHT22;36525;49.398;7.614;2022-12-29T06:38:16;10.90;99.90
50570;DHT22;36525;49.398;7.614;2022-12-29T06:40:43;10.80;99.90
50570;DHT22;36525;49.398;7.614;2022-12-29T06:43:11;10.80;99.90
50570;DHT22;36525;49.398;7.614;2022-12-29T06:45:39;10.70;99.90
50570;DHT22;36525;49.398;7.614;2022-12-29T06:48:07;10.70;99.90
50570;DHT22;36525;49.398;7.614;2022-12-29T06:50:34;10.90;99.90
50570;DHT22;36525;49.398;7.614;2022-12-29T06:53:01;10.90;99.90
50570;DHT22;36525;49.398;7.614;2022-12-29T06:55:28;10.90;99.90
50570;DHT22;36525;49.398;7.614;2022-12-29T06:57:56;10.90;99.90
50570;DHT22;36525;49.398;7.614;2022-12-29T07:00:24;10.80;99.90
50570;DHT22;36525;49.398;7.614;2022-12-29T07:02:55;10.90;99.90
50570;DHT22;36525;49.398;7.614;2022-12-29T07:05:25;10.90;99.90
50570;DHT22;36525;49.398;7.614;2022-12-29T07:07:54;10.90;99.90
50570;DHT22;36525;49.398;7.614;2022-12-29T07:10:22;10.80;99.90
50570;DHT22;36525;49.398;7.614;2022-12-29T07:12:51;10.60;99.90
50570;DHT22;36525;49.398;7.614;2022-12-29T07:15:18;10.50;99.90
50570;DHT22;36525;49.398;7.614;2022-12-29T07:17:45;10.50;99.90
50570;DHT22;36525;49.398;7.614;2022-12-29T07:20:11;10.70;99.90
50570;DHT22;36525;49.398;7.614;2022-12-29T07:22:38;10.70;99.90
50570;DHT22;36525;49.398;7.614;2022-12-29T07:25:06;10.70;99.90
50570;DHT22;36525;49.398;7.614;2022-12-29T07:27:33;10.70;99.90
50570;DHT22;36525;49.398;7.614;2022-12-29T07:30:00;10.90;99.90
50570;DHT22;36525;49.398;7.614;2022-12-29T07:32:26;10.90;99.90
50570;DHT22;36525;49.398;7.614;2022-12-29T07:34:53;11.00;99.90
50570;DHT22;36525;49.398;7.614;2022-12-29T07:37:20;10.90;99.90
50570;DHT22;36525;49.398;7.614;2022-12-29T07:39:47;10.90;99.90
50570;DHT22;36525;49.398;7.614;2022-12-29T07:42:14;10.90;99.90
50570;DHT22;36525;49.398;7.614;2022-12-29T07:44:41;10.80;99.90
50570;DHT22;36525;49.398;7.614;2022-12-29T07:47:08;10.60;99.90
50570;DHT22;36525;49.398;7.614;2022-12-29T07:49:35;10.80;99.90
50570;DHT22;36525;49.398;7.614;2022-12-29T07:52:05;10.90;99.90
50570;DHT22;36525;49.398;7.614;2022-12-29T07:54:31;11.00;99.90
50570;DHT22;36525;49.398;7.614;2022-12-29T07:56:58;10.90;99.90
50570;DHT22;36525;49.398;7.614;2022-12-29T07:59:26;10.50;99.90
50570;DHT22;36525;49.398;7.614;2022-12-29T08:01:53;10.20;99.90
50570;DHT22;36525;49.398;7.614;2022-12-29T08:04:21;10.20;99.90
50570;DHT22;36525;49.398;7.614;2022-12-29T08:06:48;10.30;99.90
50570;DHT22;36525;49.398;7.614;2022-12-29T08:09:15;10.40;99.90
50570;DHT22;36525;49.398;7.614;2022-12-29T08:11:48;10.50;99.90
50570;DHT22;36525;49.398;7.614;2022-12-29T08:14:15;10.60;99.90
50570;DHT22;36525;49.398;7.614;2022-12-29T08:16:42;10.60;99.90
50570;DHT22;36525;49.398;7.614;2022-12-29T08:19:11;10.60;99.90
50570;DHT22;36525;49.398;7.614;2022-12-29T08:21:38;10.70;99.90
50570;DHT22;36525;49.398;7.614;2022-12-29T08:24:06;10.60;99.90
50570;DHT22;36525;49.398;7.614;2022-12-29T08:26:33;10.50;99.90
50570;DHT22;36525;49.398;7.614;2022-12-29T08:29:00;10.30;99.90
50570;DHT22;36525;49.398;7.614;2022-12-29T08:31:27;10.00;99.90
50570;DHT22;36525;49.398;7.614;2022-12-29T08:33:54;9.80;99.90
50570;DHT22;36525;49.398;7.614;2022-12-29T08:36:21;9.70;99.90
50570;DHT22;36525;49.398;7.614;2022-12-29T08:38:48;9.60;99.90
50570;DHT22;36525;49.398;7.614;2022-12-29T08:41:15;9.60;99.90
50570;DHT22;36525;49.398;7.614;2022-12-29T08:43:46;9.60;99.90
50570;DHT22;36525;49.398;7.614;2022-12-29T08:46:14;9.70;99.90
50570;DHT22;36525;49.398;7.614;2022-12-29T08:48:42;9.70;99.90
50570;DHT22;36525;49.398;7.614;2022-12-29T08:51:09;9.80;99.90
50570;DHT22;36525;49.398;7.614;2022-12-29T08:53:36;10.00;99.90
50570;DHT22;36525;49.398;7.614;2022-12-29T08:56:03;10.10;99.90
50570;DHT22;36525;49.398;7.614;2022-12-29T08:58:32;10.20;99.90
50570;DHT22;36525;49.398;7.614;2022-12-29T09:00:59;10.20;99.90
50570;DHT22;36525;49.398;7.614;2022-12-29T09:03:26;10.00;99.90
50570;DHT22;36525;49.398;7.614;2022-12-29T09:06:14;10.00;99.90
50570;DHT22;36525;49.398;7.614;2022-12-29T09:08:43;10.00;99.90
50570;DHT22;36525;49.398;7.614;2022-12-29T09:11:20;10.10;99.90
50570;DHT22;36525;49.398;7.614;2022-12-29T09:13:49;10.00;99.90
50570;DHT22;36525;49.398;7.614;2022-12-29T09:16:16;9.90;99.90
50570;DHT22;36525;49.398;7.614;2022-12-29T09:18:52;9.90;99.90
50570;DHT22;36525;49.398;7.614;2022-12-29T09:21:19;10.00;99.90
50570;DHT22;36525;49.398;7.614;2022-12-29T09:23:47;10.10;99.90
50570;DHT22;36525;49.398;7.614;2022-12-29T09:26:14;10.10;99.90
50570;DHT22;36525;49.398;7.614;2022-12-29T09:28:41;10.20;99.90
50570;DHT22;36525;49.398;7.614;2022-12-29T09:31:10;10.20;99.90
50570;DHT22;36525;49.398;7.614;2022-12-29T09:33:38;10.30;99.90
50570;DHT22;36525;49.398;7.614;2022-12-29T09:36:05;10.30;99.90
50570;DHT22;36525;49.398;7.614;2022-12-29T09:38:32;10.30;99.90
50570;DHT22;36525;49.398;7.614;2022-12-29T09:41:12;10.30;99.90
50570;DHT22;36525;49.398;7.614;2022-12-29T09:44:13;10.20;99.90
50570;DHT22;36525;49.398;7.614;2022-12-29T09:46:52;10.30;99.90
50570;DHT22;36525;49.398;7.614;2022-12-29T09:52:14;10.30;99.90
50570;DHT22;36525;49.398;7.614;2022-12-29T09:54:50;10.30;99.90
50570;DHT22;36525;49.398;7.614;2022-12-29T09:57:34;10.30;99.90
50570;DHT22;36525;49.398;7.614;2022-12-29T10:00:15;10.30;99.90
50570;DHT22;36525;49.398;7.614;2022-12-29T10:02:48;10.30;99.90
50570;DHT22;36525;49.398;7.614;2022-12-29T10:05:34;10.40;99.90
50570;DHT22;36525;49.398;7.614;2022-12-29T10:15:14;10.50;99.90
50570;DHT22;36525;49.398;7.614;2022-12-29T10:21:08;10.60;99.90
50570;DHT22;36525;49.398;7.614;2022-12-29T10:23:46;10.70;99.90
50570;DHT22;36525;49.398;7.614;2022-12-29T10:26:18;10.70;99.90
50570;DHT22;36525;49.398;7.614;2022-12-29T10:29:05;10.70;99.90
50570;DHT22;36525;49.398;7.614;2022-12-29T10:34:37;10.40;99.90
50570;DHT22;36525;49.398;7.614;2022-12-29T10:37:43;10.20;99.90
50570;DHT22;36525;49.398;7.614;2022-12-29T10:40:20;9.90;99.90
50570;DHT22;36525;49.398;7.614;2022-12-29T10:42:55;9.70;99.90
50570;DHT22;36525;49.398;7.614;2022-12-29T10:45:29;9.50;99.90
50570;DHT22;36525;49.398;7.614;2022-12-29T10:48:09;9.40;99.90
50570;DHT22;36525;49.398;7.614;2022-12-29T10:50:44;9.50;99.90
50570;DHT22;36525;49.398;7.614;2022-12-29T10:53:17;9.50;99.90
50570;DHT22;36525;49.398;7.614;2022-12-29T10:55:46;9.50;99.90
50570;DHT22;36525;49.398;7.614;2022-12-29T10:58:14;9.50;99.90
50570;DHT22;36525;49.398;7.614;2022-12-29T11:00:43;9.50;99.90
50570;DHT22;36525;49.398;7.614;2022-12-29T11:06:17;9.40;99.90
50570;DHT22;36525;49.398;7.614;2022-12-29T11:09:16;9.60;99.90
50570;DHT22;36525;49.398;7.614;2022-12-29T11:17:53;9.80;99.90
50570;DHT22;36525;49.398;7.614;2022-12-29T11:20:30;9.90;99.90
50570;DHT22;36525;49.398;7.614;2022-12-29T11:22:57;10.00;99.90
50570;DHT22;36525;49.398;7.614;2022-12-29T11:25:24;10.10;99.90
50570;DHT22;36525;49.398;7.614;2022-12-29T11:28:03;10.20;99.90
50570;DHT22;36525;49.398;7.614;2022-12-29T11:30:41;10.40;99.90
50570;DHT22;36525;49.398;7.614;2022-12-29T11:33:08;10.50;99.90
50570;DHT22;36525;49.398;7.614;2022-12-29T11:35:42;10.60;99.90
50570;DHT22;36525;49.398;7.614;2022-12-29T11:38:20;10.70;99.90
50570;DHT22;36525;49.398;7.614;2022-12-29T11:43:34;10.80;99.90
50570;DHT22;36525;49.398;7.614;2022-12-29T11:46:04;10.80;99.90
50570;DHT22;36525;49.398;7.614;2022-12-29T11:48:38;10.90;99.90
50570;DHT22;36525;49.398;7.614;2022-12-29T11:51:07;10.80;99.90
50570;DHT22;36525;49.398;7.614;2022-12-29T11:56:14;10.90;99.90
50570;DHT22;36525;49.398;7.614;2022-12-29T11:58:43;10.90;99.90
50570;DHT22;36525;49.398;7.614;2022-12-29T12:01:24;10.80;99.90
50570;DHT22;36525;49.398;7.614;2022-12-29T12:04:16;10.80;99.90
50570;DHT22;36525;49.398;7.614;2022-12-29T12:09:45;10.70;99.90
50570;DHT22;36525;49.398;7.614;2022-12-29T12:12:28;10.70;99.90
50570;DHT22;36525;49.398;7.614;2022-12-29T12:14:58;10.70;99.90
50570;DHT22;36525;49.398;7.614;2022-12-29T12:17:37;10.60;99.90
50570;DHT22;36525;49.398;7.614;2022-12-29T12:23:47;10.30;99.90
50570;DHT22;36525;49.398;7.614;2022-12-29T12:26:42;10.10;99.90
50570;DHT22;36525;49.398;7.614;2022-12-29T12:29:22;10.00;99.90
50570;DHT22;36525;49.398;7.614;2022-12-29T12:31:56;9.80;99.90
50570;DHT22;36525;49.398;7.614;2022-12-29T12:34:58;9.60;99.90
50570;DHT22;36525;49.398;7.614;2022-12-29T12:37:47;9.50;99.90
50570;DHT22;36525;49.398;7.614;2022-12-29T13:02:15;9.50;99.90
50570;DHT22;36525;49.398;7.614;2022-12-29T13:17:13;9.50;99.90
50570;DHT22;36525;49.398;7.614;2022-12-29T13:23:09;9.40;99.90
50570;DHT22;36525;49.398;7.614;2022-12-29T13:25:56;9.30;99.90
50570;DHT22;36525;49.398;7.614;2022-12-29T13:28:47;9.20;99.90
50570;DHT22;36525;49.398;7.614;2022-12-29T13:37:45;8.90;99.90
50570;DHT22;36525;49.398;7.614;2022-12-29T13:40:41;8.70;99.90
50570;DHT22;36525;49.398;7.614;2022-12-29T13:43:13;8.60;99.90
50570;DHT22;36525;49.398;7.614;2022-12-29T13:45:40;8.60;99.90
50570;DHT22;36525;49.398;7.614;2022-12-29T13:48:17;8.60;99.90
50570;DHT22;36525;49.398;7.614;2022-12-29T13:50:52;8.60;99.90
50570;DHT22;36525;49.398;7.614;2022-12-29T13:53:36;8.50;99.90
50570;DHT22;36525;49.398;7.614;2022-12-29T13:56:18;8.50;99.90
50570;DHT22;36525;49.398;7.614;2022-12-29T13:58:56;8.40;99.90
50570;DHT22;36525;49.398;7.614;2022-12-29T14:01:58;8.50;99.90
50570;DHT22;36525;49.398;7.614;2022-12-29T14:04:30;8.40;99.90
50570;DHT22;36525;49.398;7.614;2022-12-29T14:07:06;8.40;99.90
50570;DHT22;36525;49.398;7.614;2022-12-29T14:09:46;8.40;99.90
50570;DHT22;36525;49.398;7.614;2022-12-29T14:17:39;8.50;99.90
50570;DHT22;36525;49.398;7.614;2022-12-29T14:20:21;8.50;99.90
50570;DHT22;36525;49.398;7.614;2022-12-29T14:28:29;8.30;99.90
50570;DHT22;36525;49.398;7.614;2022-12-29T14:31:43;8.20;99.90
50570;DHT22;36525;49.398;7.614;2022-12-29T14:36:39;8.40;99.90
50570;DHT22;36525;49.398;7.614;2022-12-29T14:39:33;8.60;99.90
50570;DHT22;36525;49.398;7.614;2022-12-29T14:45:22;8.60;99.90
50570;DHT22;36525;49.398;7.614;2022-12-29T14:47:59;8.70;99.90
50570;DHT22;36525;49.398;7.614;2022-12-29T14:50:41;8.80;99.90
50570;DHT22;36525;49.398;7.614;2022-12-29T14:53:43;8.80;99.90
50570;DHT22;36525;49.398;7.614;2022-12-29T14:56:20;8.70;99.90
50570;DHT22;36525;49.398;7.614;2022-12-29T14:59:01;8.60;99.90
50570;DHT22;36525;49.398;7.614;2022-12-29T15:01:38;8.50;99.90
50570;DHT22;36525;49.398;7.614;2022-12-29T15:04:20;8.60;99.90
50570;DHT22;36525;49.398;7.614;2022-12-29T15:06:50;8.40;99.90
50570;DHT22;36525;49.398;7.614;2022-12-29T15:09:33;8.50;99.90
50570;DHT22;36525;49.398;7.614;2022-12-29T15:12:23;8.40;99.90
50570;DHT22;36525;49.398;7.614;2022-12-29T15:14:59;8.30;99.90
50570;DHT22;36525;49.398;7.614;2022-12-29T15:17:29;8.30;99.90
50570;DHT22;36525;49.398;7.614;2022-12-29T15:19:59;8.30;99.90
50570;DHT22;36525;49.398;7.614;2022-12-29T15:22:27;8.20;99.90
50570;DHT22;36525;49.398;7.614;2022-12-29T15:24:55;8.20;99.90
50570;DHT22;36525;49.398;7.614;2022-12-29T15:27:25;8.10;99.90
50570;DHT22;36525;49.398;7.614;2022-12-29T15:29:58;8.10;99.90
50570;DHT22;36525;49.398;7.614;2022-12-29T15:32:39;8.00;99.90
50570;DHT22;36525;49.398;7.614;2022-12-29T15:38:19;8.10;99.90
50570;DHT22;36525;49.398;7.614;2022-12-29T15:44:17;8.30;99.90
50570;DHT22;36525;49.398;7.614;2022-12-29T15:46:47;8.20;99.90
50570;DHT22;36525;49.398;7.614;2022-12-29T15:49:16;8.20;99.90
50570;DHT22;36525;49.398;7.614;2022-12-29T15:51:43;8.20;99.90
50570;DHT22;36525;49.398;7.614;2022-12-29T15:54:19;8.10;99.90
50570;DHT22;36525;49.398;7.614;2022-12-29T15:56:47;8.10;99.90
50570;DHT22;36525;49.398;7.614;2022-12-29T15:59:28;8.20;99.90
50570;DHT22;36525;49.398;7.614;2022-12-29T16:01:59;8.20;99.90
50570;DHT22;36525;49.398;7.614;2022-12-29T16:04:34;8.20;99.90
50570;DHT22;36525;49.398;7.614;2022-12-29T16:07:31;8.30;99.90
50570;DHT22;36525;49.398;7.614;2022-12-29T16:10:23;8.30;99.90
50570;DHT22;36525;49.398;7.614;2022-12-29T16:12:53;8.40;99.90
50570;DHT22;36525;49.398;7.614;2022-12-29T16:15:20;8.30;99.90
50570;DHT22;36525;49.398;7.614;2022-12-29T16:17:50;8.40;99.90
50570;DHT22;36525;49.398;7.614;2022-12-29T16:20:37;8.50;99.90
50570;DHT22;36525;49.398;7.614;2022-12-29T16:23:20;8.50;99.90
50570;DHT22;36525;49.398;7.614;2022-12-29T16:25:49;8.50;99.90
50570;DHT22;36525;49.398;7.614;2022-12-29T16:28:22;8.50;99.90
50570;DHT22;36525;49.398;7.614;2022-12-29T16:33:58;8.70;99.90
50570;DHT22;36525;49.398;7.614;2022-12-29T16:36:56;8.60;99.90
50570;DHT22;36525;49.398;7.614;2022-12-29T16:39:39;8.60;99.90
50570;DHT22;36525;49.398;7.614;2022-12-29T16:42:43;8.60;99.90
50570;DHT22;36525;49.398;7.614;2022-12-29T16:50:42;8.60;99.90
50570;DHT22;36525;49.398;7.614;2022-12-29T16:53:24;8.60;99.90
50570;DHT22;36525;49.398;7.614;2022-12-29T16:55:54;8.60;99.90
50570;DHT22;36525;49.398;7.614;2022-12-29T16:58:26;8.60;99.90
50570;DHT22;36525;49.398;7.614;2022-12-29T17:00:56;8.50;99.90
50570;DHT22;36525;49.398;7.614;2022-12-29T17:03:37;8.50;99.90
50570;DHT22;36525;49.398;7.614;2022-12-29T17:06:06;8.50;99.90
50570;DHT22;36525;49.398;7.614;2022-12-29T17:08:41;8.60;99.90
50570;DHT22;36525;49.398;7.614;2022-12-29T17:11:22;8.50;99.90
50570;DHT22;36525;49.398;7.614;2022-12-29T17:16:53;8.50;99.90
50570;DHT22;36525;49.398;7.614;2022-12-29T17:19:33;8.50;99.90
50570;DHT22;36525;49.398;7.614;2022-12-29T17:22:02;8.60;99.90
50570;DHT22;36525;49.398;7.614;2022-12-29T17:24:29;8.60;99.90
50570;DHT22;36525;49.398;7.614;2022-12-29T17:26:58;8.50;99.90
50570;DHT22;36525;49.398;7.614;2022-12-29T17:29:43;8.50;99.90
50570;DHT22;36525;49.398;7.614;2022-12-29T17:32:12;8.50;99.90
50570;DHT22;36525;49.398;7.614;2022-12-29T17:34:40;8.40;99.90
50570;DHT22;36525;49.398;7.614;2022-12-29T17:37:34;8.50;99.90
50570;DHT22;36525;49.398;7.614;2022-12-29T17:40:05;8.40;99.90
50570;DHT22;36525;49.398;7.614;2022-12-29T17:42:37;8.30;99.90
50570;DHT22;36525;49.398;7.614;2022-12-29T17:45:25;8.30;99.90
50570;DHT22;36525;49.398;7.614;2022-12-29T17:47:54;8.30;99.90
50570;DHT22;36525;49.398;7.614;2022-12-29T17:50:25;8.30;99.90
50570;DHT22;36525;49.398;7.614;2022-12-29T17:53:06;8.20;99.90
50570;DHT22;36525;49.398;7.614;2022-12-29T17:55:37;8.30;99.90
50570;DHT22;36525;49.398;7.614;2022-12-29T17:58:21;8.40;99.90
50570;DHT22;36525;49.398;7.614;2022-12-29T18:00:51;8.30;99.90
50570;DHT22;36525;49.398;7.614;2022-12-29T18:03:29;8.30;99.90
50570;DHT22;36525;49.398;7.614;2022-12-29T18:06:02;8.40;99.90
50570;DHT22;36525;49.398;7.614;2022-12-29T18:08:34;8.40;99.90
50570;DHT22;36525;49.398;7.614;2022-12-29T18:11:01;8.40;99.90
50570;DHT22;36525;49.398;7.614;2022-12-29T18:13:31;8.40;99.90
50570;DHT22;36525;49.398;7.614;2022-12-29T18:16:12;8.40;99.90
50570;DHT22;36525;49.398;7.614;2022-12-29T18:18:40;8.40;99.90
50570;DHT22;36525;49.398;7.614;2022-12-29T18:21:17;8.50;99.90
50570;DHT22;36525;49.398;7.614;2022-12-29T18:23:47;8.50;99.90
50570;DHT22;36525;49.398;7.614;2022-12-29T18:26:20;8.50;99.90
50570;DHT22;36525;49.398;7.614;2022-12-29T18:28:55;8.50;99.90
50570;DHT22;36525;49.398;7.614;2022-12-29T18:31:26;8.50;99.90
50570;DHT22;36525;49.398;7.614;2022-12-29T18:33:56;8.40;99.90
50570;DHT22;36525;49.398;7.614;2022-12-29T18:36:24;8.40;99.90
50570;DHT22;36525;49.398;7.614;2022-12-29T18:38:52;8.40;99.90
50570;DHT22;36525;49.398;7.614;2022-12-29T18:41:25;8.40;99.90
50570;DHT22;36525;49.398;7.614;2022-12-29T18:43:57;8.40;99.90
50570;DHT22;36525;49.398;7.614;2022-12-29T18:46:24;8.50;99.90
50570;DHT22;36525;49.398;7.614;2022-12-29T18:48:52;8.50;99.90
50570;DHT22;36525;49.398;7.614;2022-12-29T18:51:22;8.60;99.90